sensor_id;sensor_type;location;lat;lon;timestamp;P1;durP1;ratioP1;P2;durP2;ratioP2
54241;SDS011;40156;51.080;17.082;2023-03-01T00:01:02;52.63;;;18.90;;
54241;SDS011;40156;51.080;17.082;2023-03-01T00:03:30;46.13;;;17.55;;
54241;SDS011;40156;51.080;17.082;2023-03-01T00:05:57;50.63;;;17.17;;
54241;SDS011;40156;51.080;17.082;2023-03-01T00:08:25;52.50;;;19.65;;
54241;SDS011;40156;51.080;17.082;2023-03-01T00:11:00;56.45;;;21.05;;
54241;SDS011;40156;51.080;17.082;2023-03-01T00:13:27;51.28;;;19.55;;
54241;SDS011;40156;51.080;17.082;2023-03-01T00:15:55;51.33;;;18.65;;
54241;SDS011;40156;51.080;17.082;2023-03-01T00:18:23;51.53;;;20.15;;
54241;SDS011;40156;51.080;17.082;2023-03-01T00:20:51;58.80;;;19.17;;
54241;SDS011;40156;51.080;17.082;2023-03-01T00:23:19;49.55;;;19.63;;
54241;SDS011;40156;51.080;17.082;2023-03-01T00:25:46;52.95;;;19.27;;
54241;SDS011;40156;51.080;17.082;2023-03-01T00:28:14;52.47;;;19.80;;
54241;SDS011;40156;51.080;17.082;2023-03-01T00:30:41;43.33;;;17.52;;
54241;SDS011;40156;51.080;17.082;2023-03-01T00:33:09;47.88;;;17.70;;
54241;SDS011;40156;51.080;17.082;2023-03-01T00:35:37;54.97;;;19.65;;
54241;SDS011;40156;51.080;17.082;2023-03-01T00:38:05;53.25;;;18.73;;
54241;SDS011;40156;51.080;17.082;2023-03-01T00:40:33;55.78;;;21.25;;
54241;SDS011;40156;51.080;17.082;2023-03-01T00:43:01;50.20;;;18.45;;
54241;SDS011;40156;51.080;17.082;2023-03-01T00:45:29;51.38;;;19.00;;
54241;SDS011;40156;51.080;17.082;2023-03-01T00:47:57;50.08;;;19.38;;
54241;SDS011;40156;51.080;17.082;2023-03-01T00:50:24;51.63;;;19.17;;
54241;SDS011;40156;51.080;17.082;2023-03-01T00:52:53;62.97;;;22.55;;
54241;SDS011;40156;51.080;17.082;2023-03-01T00:55:21;63.80;;;19.50;;
54241;SDS011;40156;51.080;17.082;2023-03-01T00:57:48;59.28;;;21.05;;
54241;SDS011;40156;51.080;17.082;2023-03-01T01:00:16;44.17;;;19.92;;
54241;SDS011;40156;51.080;17.082;2023-03-01T01:02:44;47.95;;;20.35;;
54241;SDS011;40156;51.080;17.082;2023-03-01T01:05:12;57.28;;;19.65;;
54241;SDS011;40156;51.080;17.082;2023-03-01T01:07:39;50.22;;;20.30;;
54241;SDS011;40156;51.080;17.082;2023-03-01T01:10:07;44.30;;;17.92;;
54241;SDS011;40156;51.080;17.082;2023-03-01T01:12:35;50.65;;;18.98;;
54241;SDS011;40156;51.080;17.082;2023-03-01T01:15:02;47.25;;;18.23;;
54241;SDS011;40156;51.080;17.082;2023-03-01T01:17:30;55.85;;;18.73;;
54241;SDS011;40156;51.080;17.082;2023-03-01T01:19:58;60.70;;;21.13;;
54241;SDS011;40156;51.080;17.082;2023-03-01T01:22:25;59.70;;;21.20;;
54241;SDS011;40156;51.080;17.082;2023-03-01T01:24:53;53.80;;;21.00;;
54241;SDS011;40156;51.080;17.082;2023-03-01T01:27:20;72.32;;;23.25;;
54241;SDS011;40156;51.080;17.082;2023-03-01T01:29:48;48.38;;;20.55;;
54241;SDS011;40156;51.080;17.082;2023-03-01T01:32:16;50.13;;;19.35;;
54241;SDS011;40156;51.080;17.082;2023-03-01T01:34:43;58.28;;;21.38;;
54241;SDS011;40156;51.080;17.082;2023-03-01T01:37:29;53.33;;;21.40;;
54241;SDS011;40156;51.080;17.082;2023-03-01T01:39:57;64.97;;;24.20;;
54241;SDS011;40156;51.080;17.082;2023-03-01T01:42:25;72.88;;;26.20;;
54241;SDS011;40156;51.080;17.082;2023-03-01T01:47:39;74.00;;;27.92;;
54241;SDS011;40156;51.080;17.082;2023-03-01T01:50:08;85.22;;;31.38;;
54241;SDS011;40156;51.080;17.082;2023-03-01T01:52:41;66.78;;;25.88;;
54241;SDS011;40156;51.080;17.082;2023-03-01T01:55:14;74.32;;;26.05;;
54241;SDS011;40156;51.080;17.082;2023-03-01T02:01:15;54.13;;;20.73;;
54241;SDS011;40156;51.080;17.082;2023-03-01T02:07:25;52.72;;;21.65;;
54241;SDS011;40156;51.080;17.082;2023-03-01T02:09:53;69.38;;;23.02;;
54241;SDS011;40156;51.080;17.082;2023-03-01T02:12:21;78.30;;;24.67;;
54241;SDS011;40156;51.080;17.082;2023-03-01T02:14:50;59.22;;;22.02;;
54241;SDS011;40156;51.080;17.082;2023-03-01T02:17:17;60.50;;;22.33;;
54241;SDS011;40156;51.080;17.082;2023-03-01T02:20:02;57.75;;;23.27;;
54241;SDS011;40156;51.080;17.082;2023-03-01T02:22:31;62.17;;;24.98;;
54241;SDS011;40156;51.080;17.082;2023-03-01T02:27:30;53.25;;;20.80;;
54241;SDS011;40156;51.080;17.082;2023-03-01T02:30:00;59.65;;;21.25;;
54241;SDS011;40156;51.080;17.082;2023-03-01T02:32:27;60.00;;;21.63;;
54241;SDS011;40156;51.080;17.082;2023-03-01T02:34:55;57.03;;;21.05;;
54241;SDS011;40156;51.080;17.082;2023-03-01T02:37:23;61.92;;;22.00;;
54241;SDS011;40156;51.080;17.082;2023-03-01T02:39:57;59.95;;;22.45;;
54241;SDS011;40156;51.080;17.082;2023-03-01T02:42:26;50.50;;;21.27;;
54241;SDS011;40156;51.080;17.082;2023-03-01T02:44:55;55.45;;;21.83;;
54241;SDS011;40156;51.080;17.082;2023-03-01T02:47:23;49.95;;;20.77;;
54241;SDS011;40156;51.080;17.082;2023-03-01T02:49:50;58.00;;;21.65;;
54241;SDS011;40156;51.080;17.082;2023-03-01T02:55:50;60.47;;;21.70;;
54241;SDS011;40156;51.080;17.082;2023-03-01T03:01:49;61.58;;;22.30;;
54241;SDS011;40156;51.080;17.082;2023-03-01T03:04:19;62.63;;;23.25;;
54241;SDS011;40156;51.080;17.082;2023-03-01T03:06:47;58.72;;;21.70;;
54241;SDS011;40156;51.080;17.082;2023-03-01T03:09:15;60.63;;;22.38;;
54241;SDS011;40156;51.080;17.082;2023-03-01T03:11:44;64.72;;;22.98;;
54241;SDS011;40156;51.080;17.082;2023-03-01T03:14:13;69.47;;;23.42;;
54241;SDS011;40156;51.080;17.082;2023-03-01T03:16:44;58.00;;;22.10;;
54241;SDS011;40156;51.080;17.082;2023-03-01T03:19:12;71.13;;;25.88;;
54241;SDS011;40156;51.080;17.082;2023-03-01T03:21:40;57.90;;;23.45;;
54241;SDS011;40156;51.080;17.082;2023-03-01T03:24:08;54.33;;;20.77;;
54241;SDS011;40156;51.080;17.082;2023-03-01T03:26:35;61.22;;;21.88;;
54241;SDS011;40156;51.080;17.082;2023-03-01T03:29:03;45.95;;;20.23;;
54241;SDS011;40156;51.080;17.082;2023-03-01T03:31:30;61.63;;;22.27;;
54241;SDS011;40156;51.080;17.082;2023-03-01T03:41:16;64.63;;;22.50;;
54241;SDS011;40156;51.080;17.082;2023-03-01T03:43:44;65.28;;;22.15;;
54241;SDS011;40156;51.080;17.082;2023-03-01T03:46:12;63.78;;;22.98;;
54241;SDS011;40156;51.080;17.082;2023-03-01T03:48:43;64.38;;;23.20;;
54241;SDS011;40156;51.080;17.082;2023-03-01T03:51:11;58.42;;;22.75;;
54241;SDS011;40156;51.080;17.082;2023-03-01T03:53:40;55.10;;;20.95;;
54241;SDS011;40156;51.080;17.082;2023-03-01T03:56:07;49.42;;;20.95;;
54241;SDS011;40156;51.080;17.082;2023-03-01T03:58:35;56.25;;;20.80;;
54241;SDS011;40156;51.080;17.082;2023-03-01T04:01:03;68.00;;;23.15;;
54241;SDS011;40156;51.080;17.082;2023-03-01T04:03:31;92.65;;;27.73;;
54241;SDS011;40156;51.080;17.082;2023-03-01T04:05:59;55.40;;;22.45;;
54241;SDS011;40156;51.080;17.082;2023-03-01T04:08:27;67.18;;;24.88;;
54241;SDS011;40156;51.080;17.082;2023-03-01T04:11:01;63.85;;;22.75;;
54241;SDS011;40156;51.080;17.082;2023-03-01T04:13:29;55.25;;;21.40;;
54241;SDS011;40156;51.080;17.082;2023-03-01T04:15:56;55.13;;;20.23;;
54241;SDS011;40156;51.080;17.082;2023-03-01T04:18:24;73.20;;;20.55;;
54241;SDS011;40156;51.080;17.082;2023-03-01T04:20:52;54.95;;;20.70;;
54241;SDS011;40156;51.080;17.082;2023-03-01T04:23:20;49.38;;;21.38;;
54241;SDS011;40156;51.080;17.082;2023-03-01T04:25:50;45.63;;;18.15;;
54241;SDS011;40156;51.080;17.082;2023-03-01T04:28:19;51.40;;;19.55;;
54241;SDS011;40156;51.080;17.082;2023-03-01T04:30:47;53.65;;;19.05;;
54241;SDS011;40156;51.080;17.082;2023-03-01T04:33:17;49.90;;;19.27;;
54241;SDS011;40156;51.080;17.082;2023-03-01T04:35:45;52.45;;;19.65;;
54241;SDS011;40156;51.080;17.082;2023-03-01T04:38:13;57.10;;;19.38;;
54241;SDS011;40156;51.080;17.082;2023-03-01T04:40:40;54.67;;;20.77;;
54241;SDS011;40156;51.080;17.082;2023-03-01T04:43:09;57.20;;;21.08;;
54241;SDS011;40156;51.080;17.082;2023-03-01T04:45:36;55.40;;;20.13;;
54241;SDS011;40156;51.080;17.082;2023-03-01T04:48:04;53.08;;;20.42;;
54241;SDS011;40156;51.080;17.082;2023-03-01T04:50:32;60.03;;;22.45;;
54241;SDS011;40156;51.080;17.082;2023-03-01T04:53:00;55.78;;;20.23;;
54241;SDS011;40156;51.080;17.082;2023-03-01T04:55:27;57.90;;;21.30;;
54241;SDS011;40156;51.080;17.082;2023-03-01T04:57:55;49.25;;;21.02;;
54241;SDS011;40156;51.080;17.082;2023-03-01T05:00:23;62.15;;;23.88;;
54241;SDS011;40156;51.080;17.082;2023-03-01T05:02:59;65.05;;;22.73;;
54241;SDS011;40156;51.080;17.082;2023-03-01T05:05:31;54.92;;;19.30;;
54241;SDS011;40156;51.080;17.082;2023-03-01T05:08:00;58.80;;;20.27;;
54241;SDS011;40156;51.080;17.082;2023-03-01T05:10:28;48.05;;;20.35;;
54241;SDS011;40156;51.080;17.082;2023-03-01T05:12:56;62.03;;;19.98;;
54241;SDS011;40156;51.080;17.082;2023-03-01T05:15:25;56.35;;;21.67;;
54241;SDS011;40156;51.080;17.082;2023-03-01T05:17:53;58.33;;;20.70;;
54241;SDS011;40156;51.080;17.082;2023-03-01T05:20:21;49.78;;;19.27;;
54241;SDS011;40156;51.080;17.082;2023-03-01T05:22:49;57.40;;;20.23;;
54241;SDS011;40156;51.080;17.082;2023-03-01T05:25:16;53.95;;;20.38;;
54241;SDS011;40156;51.080;17.082;2023-03-01T05:27:44;50.80;;;20.88;;
54241;SDS011;40156;51.080;17.082;2023-03-01T05:30:12;56.22;;;19.58;;
54241;SDS011;40156;51.080;17.082;2023-03-01T05:32:40;59.20;;;19.80;;
54241;SDS011;40156;51.080;17.082;2023-03-01T05:35:08;50.40;;;18.70;;
54241;SDS011;40156;51.080;17.082;2023-03-01T05:37:36;57.80;;;21.40;;
54241;SDS011;40156;51.080;17.082;2023-03-01T05:40:03;54.60;;;20.88;;
54241;SDS011;40156;51.080;17.082;2023-03-01T05:42:31;52.08;;;19.35;;
54241;SDS011;40156;51.080;17.082;2023-03-01T05:44:58;69.63;;;22.65;;
54241;SDS011;40156;51.080;17.082;2023-03-01T05:47:26;66.35;;;21.48;;
54241;SDS011;40156;51.080;17.082;2023-03-01T05:49:53;61.40;;;22.02;;
54241;SDS011;40156;51.080;17.082;2023-03-01T05:52:21;53.42;;;18.73;;
54241;SDS011;40156;51.080;17.082;2023-03-01T05:54:49;61.75;;;23.08;;
54241;SDS011;40156;51.080;17.082;2023-03-01T05:57:16;65.38;;;23.45;;
54241;SDS011;40156;51.080;17.082;2023-03-01T05:59:45;63.60;;;21.08;;
54241;SDS011;40156;51.080;17.082;2023-03-01T06:02:12;56.70;;;21.63;;
54241;SDS011;40156;51.080;17.082;2023-03-01T06:04:40;62.28;;;22.55;;
54241;SDS011;40156;51.080;17.082;2023-03-01T06:07:08;57.88;;;21.42;;
54241;SDS011;40156;51.080;17.082;2023-03-01T06:09:35;59.92;;;22.67;;
54241;SDS011;40156;51.080;17.082;2023-03-01T06:12:03;60.67;;;21.90;;
54241;SDS011;40156;51.080;17.082;2023-03-01T06:14:30;54.92;;;21.90;;
54241;SDS011;40156;51.080;17.082;2023-03-01T06:16:58;59.17;;;23.40;;
54241;SDS011;40156;51.080;17.082;2023-03-01T06:19:26;63.17;;;24.48;;
54241;SDS011;40156;51.080;17.082;2023-03-01T06:21:53;57.08;;;23.00;;
54241;SDS011;40156;51.080;17.082;2023-03-01T06:24:21;58.97;;;22.35;;
54241;SDS011;40156;51.080;17.082;2023-03-01T06:26:49;52.85;;;22.08;;
54241;SDS011;40156;51.080;17.082;2023-03-01T06:29:16;60.13;;;23.55;;
54241;SDS011;40156;51.080;17.082;2023-03-01T06:31:44;55.45;;;21.92;;
54241;SDS011;40156;51.080;17.082;2023-03-01T06:41:31;49.70;;;23.55;;
54241;SDS011;40156;51.080;17.082;2023-03-01T06:43:59;59.17;;;24.17;;
54241;SDS011;40156;51.080;17.082;2023-03-01T06:46:27;60.72;;;24.17;;
54241;SDS011;40156;51.080;17.082;2023-03-01T06:48:55;61.10;;;24.35;;
54241;SDS011;40156;51.080;17.082;2023-03-01T06:51:29;65.53;;;26.50;;
54241;SDS011;40156;51.080;17.082;2023-03-01T06:53:57;65.53;;;27.02;;
54241;SDS011;40156;51.080;17.082;2023-03-01T06:58:57;58.50;;;25.52;;
54241;SDS011;40156;51.080;17.082;2023-03-01T07:04:50;60.15;;;25.23;;
54241;SDS011;40156;51.080;17.082;2023-03-01T07:10:31;58.17;;;25.17;;
54241;SDS011;40156;51.080;17.082;2023-03-01T07:12:59;59.35;;;25.15;;
54241;SDS011;40156;51.080;17.082;2023-03-01T07:18:22;64.40;;;26.38;;
54241;SDS011;40156;51.080;17.082;2023-03-01T07:20:49;55.67;;;26.27;;
54241;SDS011;40156;51.080;17.082;2023-03-01T07:23:17;53.75;;;24.55;;
54241;SDS011;40156;51.080;17.082;2023-03-01T07:25:50;57.90;;;26.23;;
54241;SDS011;40156;51.080;17.082;2023-03-01T07:28:18;57.88;;;26.88;;
54241;SDS011;40156;51.080;17.082;2023-03-01T07:30:46;59.05;;;26.45;;
54241;SDS011;40156;51.080;17.082;2023-03-01T07:33:13;60.53;;;28.58;;
54241;SDS011;40156;51.080;17.082;2023-03-01T07:38:58;68.10;;;29.63;;
54241;SDS011;40156;51.080;17.082;2023-03-01T07:41:27;60.50;;;28.05;;
54241;SDS011;40156;51.080;17.082;2023-03-01T07:43:55;67.60;;;31.95;;
54241;SDS011;40156;51.080;17.082;2023-03-01T07:49:54;55.25;;;25.33;;
54241;SDS011;40156;51.080;17.082;2023-03-01T07:52:22;55.72;;;26.48;;
54241;SDS011;40156;51.080;17.082;2023-03-01T07:54:49;58.35;;;29.35;;
54241;SDS011;40156;51.080;17.082;2023-03-01T07:57:17;63.25;;;26.70;;
54241;SDS011;40156;51.080;17.082;2023-03-01T07:59:44;54.40;;;26.50;;
54241;SDS011;40156;51.080;17.082;2023-03-01T08:02:12;48.63;;;23.83;;
54241;SDS011;40156;51.080;17.082;2023-03-01T08:04:40;48.72;;;23.98;;
54241;SDS011;40156;51.080;17.082;2023-03-01T08:07:08;47.08;;;23.77;;
54241;SDS011;40156;51.080;17.082;2023-03-01T08:09:36;51.50;;;26.83;;
54241;SDS011;40156;51.080;17.082;2023-03-01T08:12:04;56.70;;;26.88;;
54241;SDS011;40156;51.080;17.082;2023-03-01T08:14:32;55.15;;;26.33;;
54241;SDS011;40156;51.080;17.082;2023-03-01T08:16:59;51.25;;;25.15;;
54241;SDS011;40156;51.080;17.082;2023-03-01T08:19:27;59.28;;;27.08;;
54241;SDS011;40156;51.080;17.082;2023-03-01T08:21:54;47.40;;;24.63;;
54241;SDS011;40156;51.080;17.082;2023-03-01T08:24:37;49.45;;;25.00;;
54241;SDS011;40156;51.080;17.082;2023-03-01T08:30:47;42.10;;;21.92;;
54241;SDS011;40156;51.080;17.082;2023-03-01T08:33:16;43.13;;;21.35;;
54241;SDS011;40156;51.080;17.082;2023-03-01T08:35:44;39.15;;;20.95;;
54241;SDS011;40156;51.080;17.082;2023-03-01T08:38:12;35.10;;;19.08;;
54241;SDS011;40156;51.080;17.082;2023-03-01T08:40:39;35.50;;;19.92;;
54241;SDS011;40156;51.080;17.082;2023-03-01T08:43:07;39.90;;;19.73;;
54241;SDS011;40156;51.080;17.082;2023-03-01T08:45:35;32.65;;;17.75;;
54241;SDS011;40156;51.080;17.082;2023-03-01T08:48:03;31.42;;;16.20;;
54241;SDS011;40156;51.080;17.082;2023-03-01T08:50:30;28.88;;;16.75;;
54241;SDS011;40156;51.080;17.082;2023-03-01T08:52:58;27.13;;;14.40;;
54241;SDS011;40156;51.080;17.082;2023-03-01T08:55:25;27.88;;;14.52;;
54241;SDS011;40156;51.080;17.082;2023-03-01T08:57:53;31.35;;;14.85;;
54241;SDS011;40156;51.080;17.082;2023-03-01T09:00:20;24.95;;;12.98;;
54241;SDS011;40156;51.080;17.082;2023-03-01T09:02:48;25.10;;;14.02;;
54241;SDS011;40156;51.080;17.082;2023-03-01T09:05:16;24.48;;;13.40;;
54241;SDS011;40156;51.080;17.082;2023-03-01T09:07:46;23.70;;;13.13;;
54241;SDS011;40156;51.080;17.082;2023-03-01T09:10:14;26.38;;;13.02;;
54241;SDS011;40156;51.080;17.082;2023-03-01T09:12:42;31.10;;;15.68;;
54241;SDS011;40156;51.080;17.082;2023-03-01T09:15:27;25.73;;;15.15;;
54241;SDS011;40156;51.080;17.082;2023-03-01T09:17:55;28.75;;;15.18;;
54241;SDS011;40156;51.080;17.082;2023-03-01T09:20:22;26.05;;;13.82;;
54241;SDS011;40156;51.080;17.082;2023-03-01T09:22:50;22.10;;;12.80;;
54241;SDS011;40156;51.080;17.082;2023-03-01T09:25:17;31.33;;;15.25;;
54241;SDS011;40156;51.080;17.082;2023-03-01T09:27:45;24.40;;;13.07;;
54241;SDS011;40156;51.080;17.082;2023-03-01T09:30:13;24.20;;;13.75;;
54241;SDS011;40156;51.080;17.082;2023-03-01T09:32:40;29.80;;;15.05;;
54241;SDS011;40156;51.080;17.082;2023-03-01T09:35:08;29.65;;;15.00;;
54241;SDS011;40156;51.080;17.082;2023-03-01T09:37:36;22.80;;;13.48;;
54241;SDS011;40156;51.080;17.082;2023-03-01T09:40:04;27.00;;;13.95;;
54241;SDS011;40156;51.080;17.082;2023-03-01T09:42:34;22.45;;;12.77;;
54241;SDS011;40156;51.080;17.082;2023-03-01T09:45:03;24.33;;;13.15;;
54241;SDS011;40156;51.080;17.082;2023-03-01T09:47:32;21.60;;;13.25;;
54241;SDS011;40156;51.080;17.082;2023-03-01T09:50:14;22.80;;;13.13;;
54241;SDS011;40156;51.080;17.082;2023-03-01T09:55:33;23.88;;;12.63;;
54241;SDS011;40156;51.080;17.082;2023-03-01T10:00:44;25.80;;;15.23;;
54241;SDS011;40156;51.080;17.082;2023-03-01T10:10:55;19.83;;;11.90;;
54241;SDS011;40156;51.080;17.082;2023-03-01T10:13:34;22.42;;;12.20;;
54241;SDS011;40156;51.080;17.082;2023-03-01T10:16:14;20.52;;;12.95;;
54241;SDS011;40156;51.080;17.082;2023-03-01T10:18:42;21.83;;;11.98;;
54241;SDS011;40156;51.080;17.082;2023-03-01T10:21:16;17.90;;;11.35;;
54241;SDS011;40156;51.080;17.082;2023-03-01T10:23:44;21.42;;;12.95;;
54241;SDS011;40156;51.080;17.082;2023-03-01T10:31:18;22.85;;;12.18;;
54241;SDS011;40156;51.080;17.082;2023-03-01T10:33:48;23.30;;;12.35;;
54241;SDS011;40156;51.080;17.082;2023-03-01T10:36:18;19.58;;;12.10;;
54241;SDS011;40156;51.080;17.082;2023-03-01T10:38:53;24.58;;;13.45;;
54241;SDS011;40156;51.080;17.082;2023-03-01T10:41:21;22.20;;;12.32;;
54241;SDS011;40156;51.080;17.082;2023-03-01T10:43:51;25.77;;;13.18;;
54241;SDS011;40156;51.080;17.082;2023-03-01T10:46:22;20.05;;;11.63;;
54241;SDS011;40156;51.080;17.082;2023-03-01T10:51:18;18.88;;;11.57;;
54241;SDS011;40156;51.080;17.082;2023-03-01T10:53:49;23.48;;;13.15;;
54241;SDS011;40156;51.080;17.082;2023-03-01T10:56:16;20.02;;;11.93;;
54241;SDS011;40156;51.080;17.082;2023-03-01T11:01:29;19.40;;;10.60;;
54241;SDS011;40156;51.080;17.082;2023-03-01T11:06:34;22.25;;;13.07;;
54241;SDS011;40156;51.080;17.082;2023-03-01T11:09:22;22.70;;;12.40;;
54241;SDS011;40156;51.080;17.082;2023-03-01T11:11:53;21.83;;;12.27;;
54241;SDS011;40156;51.080;17.082;2023-03-01T11:14:22;22.35;;;12.40;;
54241;SDS011;40156;51.080;17.082;2023-03-01T11:17:01;25.35;;;11.50;;
54241;SDS011;40156;51.080;17.082;2023-03-01T11:19:36;20.77;;;11.63;;
54241;SDS011;40156;51.080;17.082;2023-03-01T11:22:05;18.88;;;10.75;;
54241;SDS011;40156;51.080;17.082;2023-03-01T11:24:45;20.92;;;12.98;;
54241;SDS011;40156;51.080;17.082;2023-03-01T11:27:28;19.67;;;11.32;;
54241;SDS011;40156;51.080;17.082;2023-03-01T11:30:03;16.88;;;10.13;;
54241;SDS011;40156;51.080;17.082;2023-03-01T11:32:42;19.55;;;10.77;;
54241;SDS011;40156;51.080;17.082;2023-03-01T11:35:14;15.75;;;9.95;;
54241;SDS011;40156;51.080;17.082;2023-03-01T11:37:56;20.38;;;10.70;;
54241;SDS011;40156;51.080;17.082;2023-03-01T11:40:26;22.42;;;12.68;;
54241;SDS011;40156;51.080;17.082;2023-03-01T11:43:05;17.42;;;9.50;;
54241;SDS011;40156;51.080;17.082;2023-03-01T11:48:14;17.42;;;10.00;;
54241;SDS011;40156;51.080;17.082;2023-03-01T11:50:46;17.75;;;9.40;;
54241;SDS011;40156;51.080;17.082;2023-03-01T12:26:33;19.98;;;10.88;;
54241;SDS011;40156;51.080;17.082;2023-03-01T12:29:23;19.42;;;10.35;;
54241;SDS011;40156;51.080;17.082;2023-03-01T12:31:59;24.80;;;11.02;;
54241;SDS011;40156;51.080;17.082;2023-03-01T12:50:47;11.20;;;5.60;;
54241;SDS011;40156;51.080;17.082;2023-03-01T12:53:21;12.52;;;7.38;;
54241;SDS011;40156;51.080;17.082;2023-03-01T12:55:49;11.15;;;4.60;;
54241;SDS011;40156;51.080;17.082;2023-03-01T12:58:28;10.85;;;5.70;;
54241;SDS011;40156;51.080;17.082;2023-03-01T13:01:33;12.05;;;5.18;;
54241;SDS011;40156;51.080;17.082;2023-03-01T13:04:16;10.98;;;4.95;;
54241;SDS011;40156;51.080;17.082;2023-03-01T13:09:41;11.98;;;6.40;;
54241;SDS011;40156;51.080;17.082;2023-03-01T13:14:57;14.50;;;6.70;;
54241;SDS011;40156;51.080;17.082;2023-03-01T13:17:31;14.75;;;6.10;;
54241;SDS011;40156;51.080;17.082;2023-03-01T13:19:59;11.80;;;5.68;;
54241;SDS011;40156;51.080;17.082;2023-03-01T13:22:31;10.43;;;5.22;;
54241;SDS011;40156;51.080;17.082;2023-03-01T13:25:11;10.60;;;5.82;;
54241;SDS011;40156;51.080;17.082;2023-03-01T13:27:39;11.57;;;6.07;;
54241;SDS011;40156;51.080;17.082;2023-03-01T13:30:53;10.82;;;4.97;;
54241;SDS011;40156;51.080;17.082;2023-03-01T13:33:13;11.82;;;5.47;;
54241;SDS011;40156;51.080;17.082;2023-03-01T13:35:43;8.23;;;4.40;;
54241;SDS011;40156;51.080;17.082;2023-03-01T13:40:59;14.43;;;5.00;;
54241;SDS011;40156;51.080;17.082;2023-03-01T13:43:36;9.70;;;4.65;;
54241;SDS011;40156;51.080;17.082;2023-03-01T13:49:09;10.00;;;5.47;;
54241;SDS011;40156;51.080;17.082;2023-03-01T13:51:40;12.48;;;5.90;;
54241;SDS011;40156;51.080;17.082;2023-03-01T13:54:11;11.15;;;5.60;;
54241;SDS011;40156;51.080;17.082;2023-03-01T13:56:39;12.60;;;6.17;;
54241;SDS011;40156;51.080;17.082;2023-03-01T14:02:28;14.82;;;6.80;;
54241;SDS011;40156;51.080;17.082;2023-03-01T14:05:00;12.07;;;5.60;;
54241;SDS011;40156;51.080;17.082;2023-03-01T14:07:27;14.13;;;6.30;;
54241;SDS011;40156;51.080;17.082;2023-03-01T14:21:29;12.90;;;6.45;;
54241;SDS011;40156;51.080;17.082;2023-03-01T14:23:57;18.83;;;7.45;;
54241;SDS011;40156;51.080;17.082;2023-03-01T14:29:40;19.98;;;8.38;;
54241;SDS011;40156;51.080;17.082;2023-03-01T14:35:53;16.27;;;7.88;;
54241;SDS011;40156;51.080;17.082;2023-03-01T14:41:48;13.48;;;6.38;;
54241;SDS011;40156;51.080;17.082;2023-03-01T14:47:48;15.13;;;7.03;;
54241;SDS011;40156;51.080;17.082;2023-03-01T14:50:26;17.35;;;7.32;;
54241;SDS011;40156;51.080;17.082;2023-03-01T14:56:16;39.08;;;14.88;;
54241;SDS011;40156;51.080;17.082;2023-03-01T15:01:48;17.88;;;5.95;;
54241;SDS011;40156;51.080;17.082;2023-03-01T15:07:40;13.77;;;6.68;;
54241;SDS011;40156;51.080;17.082;2023-03-01T15:10:14;15.55;;;6.95;;
54241;SDS011;40156;51.080;17.082;2023-03-01T15:12:42;15.95;;;7.47;;
54241;SDS011;40156;51.080;17.082;2023-03-01T15:22:26;23.13;;;9.32;;
54241;SDS011;40156;51.080;17.082;2023-03-01T15:24:54;17.58;;;8.27;;
54241;SDS011;40156;51.080;17.082;2023-03-01T15:27:25;28.30;;;11.65;;
54241;SDS011;40156;51.080;17.082;2023-03-01T15:30:02;17.55;;;7.10;;
54241;SDS011;40156;51.080;17.082;2023-03-01T15:32:37;22.70;;;8.55;;
54241;SDS011;40156;51.080;17.082;2023-03-01T15:37:51;19.27;;;7.40;;
54241;SDS011;40156;51.080;17.082;2023-03-01T15:48:46;20.27;;;7.90;;
54241;SDS011;40156;51.080;17.082;2023-03-01T15:51:14;16.23;;;7.15;;
54241;SDS011;40156;51.080;17.082;2023-03-01T15:53:43;18.33;;;8.10;;
54241;SDS011;40156;51.080;17.082;2023-03-01T15:56:21;21.02;;;8.02;;
54241;SDS011;40156;51.080;17.082;2023-03-01T15:58:49;20.30;;;7.45;;
54241;SDS011;40156;51.080;17.082;2023-03-01T16:01:16;15.77;;;7.13;;
54241;SDS011;40156;51.080;17.082;2023-03-01T16:03:44;14.57;;;7.22;;
54241;SDS011;40156;51.080;17.082;2023-03-01T16:06:12;17.35;;;7.35;;
54241;SDS011;40156;51.080;17.082;2023-03-01T16:08:40;17.65;;;7.10;;
54241;SDS011;40156;51.080;17.082;2023-03-01T16:11:14;13.82;;;6.93;;
54241;SDS011;40156;51.080;17.082;2023-03-01T16:13:43;21.90;;;8.05;;
54241;SDS011;40156;51.080;17.082;2023-03-01T16:16:11;16.92;;;7.78;;
54241;SDS011;40156;51.080;17.082;2023-03-01T16:18:39;17.90;;;8.20;;
54241;SDS011;40156;51.080;17.082;2023-03-01T16:21:06;19.00;;;7.55;;
54241;SDS011;40156;51.080;17.082;2023-03-01T16:23:34;17.48;;;8.68;;
54241;SDS011;40156;51.080;17.082;2023-03-01T16:26:01;24.48;;;11.57;;
54241;SDS011;40156;51.080;17.082;2023-03-01T16:28:29;21.15;;;8.48;;
54241;SDS011;40156;51.080;17.082;2023-03-01T16:30:56;16.20;;;7.30;;
54241;SDS011;40156;51.080;17.082;2023-03-01T16:33:24;17.77;;;7.90;;
54241;SDS011;40156;51.080;17.082;2023-03-01T16:36:00;16.92;;;7.47;;
54241;SDS011;40156;51.080;17.082;2023-03-01T16:38:30;20.08;;;8.73;;
54241;SDS011;40156;51.080;17.082;2023-03-01T16:40:58;18.65;;;8.82;;
54241;SDS011;40156;51.080;17.082;2023-03-01T16:43:29;16.20;;;7.40;;
54241;SDS011;40156;51.080;17.082;2023-03-01T16:45:57;18.35;;;7.78;;
54241;SDS011;40156;51.080;17.082;2023-03-01T16:48:58;20.10;;;8.88;;
54241;SDS011;40156;51.080;17.082;2023-03-01T16:55:19;19.50;;;8.38;;
54241;SDS011;40156;51.080;17.082;2023-03-01T16:57:46;16.50;;;6.90;;
54241;SDS011;40156;51.080;17.082;2023-03-01T17:00:14;17.45;;;7.38;;
54241;SDS011;40156;51.080;17.082;2023-03-01T17:02:45;19.23;;;8.02;;
54241;SDS011;40156;51.080;17.082;2023-03-01T17:05:13;16.13;;;7.43;;
54241;SDS011;40156;51.080;17.082;2023-03-01T17:07:40;18.92;;;7.82;;
54241;SDS011;40156;51.080;17.082;2023-03-01T17:10:10;20.30;;;9.18;;
54241;SDS011;40156;51.080;17.082;2023-03-01T17:12:40;19.70;;;8.07;;
54241;SDS011;40156;51.080;17.082;2023-03-01T17:15:08;23.52;;;9.15;;
54241;SDS011;40156;51.080;17.082;2023-03-01T17:17:36;21.40;;;10.32;;
54241;SDS011;40156;51.080;17.082;2023-03-01T17:20:04;26.88;;;11.20;;
54241;SDS011;40156;51.080;17.082;2023-03-01T17:22:35;35.65;;;14.02;;
54241;SDS011;40156;51.080;17.082;2023-03-01T17:25:03;35.42;;;12.60;;
54241;SDS011;40156;51.080;17.082;2023-03-01T17:27:31;30.75;;;12.13;;
54241;SDS011;40156;51.080;17.082;2023-03-01T17:29:59;22.92;;;9.55;;
54241;SDS011;40156;51.080;17.082;2023-03-01T17:32:26;21.30;;;9.23;;
54241;SDS011;40156;51.080;17.082;2023-03-01T17:34:54;21.92;;;9.23;;
54241;SDS011;40156;51.080;17.082;2023-03-01T17:37:22;23.30;;;9.05;;
54241;SDS011;40156;51.080;17.082;2023-03-01T17:39:49;24.48;;;9.25;;
54241;SDS011;40156;51.080;17.082;2023-03-01T17:42:17;23.20;;;9.88;;
54241;SDS011;40156;51.080;17.082;2023-03-01T17:44:45;28.13;;;9.57;;
54241;SDS011;40156;51.080;17.082;2023-03-01T17:47:12;28.90;;;8.90;;
54241;SDS011;40156;51.080;17.082;2023-03-01T17:49:40;23.38;;;8.52;;
54241;SDS011;40156;51.080;17.082;2023-03-01T17:52:07;22.50;;;9.65;;